createdAt,value
2023-04-24T00:01:14.166Z,0.65
2023-04-24T00:03:47.358Z,0.68
2023-04-24T00:06:21.656Z,0.70
2023-04-24T00:08:54.736Z,0.93
2023-04-24T00:11:27.827Z,0.60
2023-04-24T00:14:00.668Z,0.60
2023-04-24T00:16:33.498Z,0.60
2023-04-24T00:19:06.944Z,0.60
2023-04-24T00:21:41.949Z,0.88
2023-04-24T00:24:14.698Z,0.80
2023-04-24T00:26:47.535Z,0.70
2023-04-24T00:29:20.441Z,1.05
2023-04-24T00:31:53.275Z,0.90
2023-04-24T00:34:26.154Z,0.60
2023-04-24T00:37:00.499Z,0.90
2023-04-24T00:39:33.297Z,0.70
2023-04-24T00:42:07.374Z,0.90
2023-04-24T00:44:40.973Z,1.00
2023-04-24T00:47:15.846Z,0.82
2023-04-24T00:49:48.631Z,0.85
2023-04-24T00:52:25.396Z,0.88
2023-04-24T00:54:58.310Z,0.80
2023-04-24T00:57:31.297Z,0.68
2023-04-24T01:00:05.700Z,1.13
2023-04-24T01:02:41.251Z,0.90
2023-04-24T01:05:16.048Z,0.90
2023-04-24T01:07:51.291Z,0.75
2023-04-24T01:10:26.228Z,0.90
2023-04-24T01:12:59.922Z,0.90
2023-04-24T01:15:32.833Z,0.73
2023-04-24T01:18:07.048Z,0.88
2023-04-24T01:20:42.296Z,0.80
2023-04-24T01:23:16.479Z,0.77
2023-04-24T01:25:51.412Z,1.15
2023-04-24T01:28:25.162Z,1.10
2023-04-24T01:30:58.103Z,0.50
2023-04-24T01:33:31.125Z,0.70
2023-04-24T01:36:03.977Z,1.85
2023-04-24T01:38:38.155Z,0.60
2023-04-24T01:41:11.330Z,0.63
2023-04-24T01:43:44.492Z,0.80
2023-04-24T01:46:17.480Z,0.75
2023-04-24T01:48:50.496Z,0.52
2023-04-24T01:51:27.962Z,0.82
2023-04-24T01:54:02.135Z,0.77
2023-04-24T01:56:36.940Z,0.63
2023-04-24T01:59:10.986Z,0.45
2023-04-24T02:01:43.959Z,0.68
2023-04-24T02:04:17.159Z,0.50
2023-04-24T02:06:50.515Z,0.55
2023-04-24T02:09:25.023Z,0.60
2023-04-24T02:11:58.318Z,0.60
2023-04-24T02:14:31.196Z,0.40
2023-04-24T02:17:03.987Z,0.63
2023-04-24T02:19:36.972Z,0.57
2023-04-24T02:22:09.793Z,0.52
2023-04-24T02:24:44.050Z,0.73
2023-04-24T02:27:17.013Z,0.75
2023-04-24T02:29:49.830Z,0.50
2023-04-24T02:32:22.614Z,0.70
2023-04-24T02:34:55.601Z,0.40
2023-04-24T02:37:28.403Z,0.75
2023-04-24T02:40:02.624Z,0.75
2023-04-24T02:42:35.620Z,0.65
2023-04-24T02:45:09.538Z,0.60
2023-04-24T02:47:42.383Z,2.00
2023-04-24T02:50:15.298Z,1.00
2023-04-24T02:52:48.401Z,0.40
2023-04-24T02:55:22.613Z,0.60
2023-04-24T02:57:55.582Z,0.60
2023-04-24T03:00:28.482Z,0.52
2023-04-24T03:03:01.567Z,0.55
2023-04-24T03:05:34.690Z,0.70
2023-04-24T03:08:07.591Z,0.60
2023-04-24T03:10:41.780Z,0.60
2023-04-24T03:13:14.597Z,0.60
2023-04-24T03:15:48.253Z,0.50
2023-04-24T03:18:21.688Z,0.80
2023-04-24T03:20:56.988Z,0.60
2023-04-24T03:23:30.047Z,0.50
2023-04-24T03:26:05.307Z,0.55
2023-04-24T03:28:39.397Z,0.68
2023-04-24T03:31:12.413Z,0.65
2023-04-24T03:33:45.271Z,0.68
2023-04-24T03:36:18.804Z,0.80
2023-04-24T03:38:51.772Z,1.83
2023-04-24T03:41:37.907Z,0.50
2023-04-24T03:44:16.950Z,0.70
2023-04-24T03:46:50.025Z,0.70
2023-04-24T03:49:23.776Z,0.77
2023-04-24T03:51:56.870Z,0.70
2023-04-24T03:54:32.710Z,0.68
2023-04-24T03:57:08.147Z,0.70
2023-04-24T03:59:44.998Z,0.70
2023-04-24T04:02:24.329Z,0.70
2023-04-24T04:04:57.481Z,0.60
2023-04-24T04:07:30.821Z,0.50
2023-04-24T04:10:04.558Z,0.80
2023-04-24T04:12:38.793Z,0.90
2023-04-24T04:15:12.502Z,0.73
2023-04-24T04:17:46.802Z,0.70
2023-04-24T04:20:19.673Z,0.60
2023-04-24T04:22:52.447Z,0.80
2023-04-24T04:25:39.537Z,0.82
2023-04-24T04:28:13.868Z,0.82
2023-04-24T04:30:48.107Z,0.70
2023-04-24T04:33:21.629Z,0.80
2023-04-24T04:35:57.699Z,1.17
2023-04-24T04:38:32.673Z,0.80
2023-04-24T04:41:13.776Z,0.80
2023-04-24T04:43:49.194Z,0.80
2023-04-24T04:46:22.879Z,0.80
2023-04-24T04:49:06.323Z,1.05
2023-04-24T04:51:41.186Z,0.93
2023-04-24T04:54:15.661Z,0.68
2023-04-24T04:56:48.859Z,1.30
2023-04-24T04:59:23.487Z,0.80
2023-04-24T05:02:03.002Z,0.85
2023-04-24T05:04:37.186Z,0.90
2023-04-24T05:07:10.212Z,0.60
2023-04-24T05:09:46.442Z,0.60
2023-04-24T05:12:19.934Z,0.75
2023-04-24T05:14:58.964Z,0.70
2023-04-24T05:17:33.067Z,0.70
2023-04-24T05:20:07.955Z,0.50
2023-04-24T05:22:41.018Z,0.70
2023-04-24T05:25:14.393Z,0.52
2023-04-24T05:27:54.335Z,0.63
2023-04-24T05:30:28.820Z,0.68
2023-04-24T05:33:02.553Z,0.63
2023-04-24T05:35:37.125Z,0.40
2023-04-24T05:38:10.434Z,0.55
2023-04-24T05:40:43.501Z,0.80
2023-04-24T05:43:16.393Z,0.50
2023-04-24T05:45:50.661Z,0.80
2023-04-24T05:48:25.175Z,0.60
2023-04-24T05:50:58.303Z,0.60
2023-04-24T05:53:31.721Z,0.70
2023-04-24T05:56:05.150Z,0.60
2023-04-24T05:58:39.126Z,0.73
2023-04-24T06:01:13.631Z,0.60
2023-04-24T06:03:46.730Z,0.63
2023-04-24T06:06:20.333Z,0.75
2023-04-24T06:08:53.199Z,0.68
2023-04-24T06:11:26.379Z,0.60
2023-04-24T06:13:59.491Z,0.68
2023-04-24T06:17:05.336Z,0.80
2023-04-24T06:19:43.365Z,1.25
2023-04-24T06:22:16.345Z,1.77
2023-04-24T06:24:49.407Z,0.95
2023-04-24T06:27:22.530Z,0.98
2023-04-24T06:29:56.280Z,0.70
2023-04-24T06:32:31.858Z,0.80
2023-04-24T06:35:08.432Z,1.20
2023-04-24T06:37:41.413Z,1.00
2023-04-24T06:40:14.653Z,1.45
2023-04-24T06:42:47.653Z,1.25
2023-04-24T06:45:21.108Z,1.38
2023-04-24T06:47:55.404Z,1.30
2023-04-24T06:50:28.302Z,1.00
2023-04-24T06:53:01.188Z,1.33
2023-04-24T06:55:34.256Z,1.60
2023-04-24T06:58:07.371Z,1.70
2023-04-24T07:00:40.390Z,1.40
2023-04-24T07:03:14.661Z,1.20
2023-04-24T07:05:48.724Z,1.70
2023-04-24T07:08:23.156Z,1.40
2023-04-24T07:10:56.898Z,1.98
2023-04-24T07:13:29.714Z,1.48
2023-04-24T07:16:02.530Z,1.48
2023-04-24T07:18:37.515Z,1.20
2023-04-24T07:21:10.621Z,1.50
2023-04-24T07:23:43.339Z,1.27
2023-04-24T07:26:17.584Z,1.67
2023-04-24T07:28:50.569Z,1.38
2023-04-24T07:31:23.366Z,1.80
2023-04-24T07:33:59.033Z,1.83
2023-04-24T07:36:33.515Z,2.60
2023-04-24T07:39:06.909Z,1.83
2023-04-24T07:41:39.679Z,2.35
2023-04-24T07:44:12.570Z,1.65
2023-04-24T07:46:45.519Z,1.92
2023-04-24T07:49:20.089Z,2.15
2023-04-24T07:51:52.984Z,1.88
2023-04-24T07:54:26.022Z,1.75
2023-04-24T07:56:58.812Z,1.98
2023-04-24T07:59:31.592Z,2.05
2023-04-24T08:02:04.369Z,2.17
2023-04-24T08:04:38.728Z,2.20
2023-04-24T08:07:13.811Z,1.92
2023-04-24T08:09:46.722Z,2.20
2023-04-24T08:12:19.480Z,1.85
2023-04-24T08:14:52.282Z,2.75
2023-04-24T08:17:26.641Z,2.00
2023-04-24T08:20:02.552Z,1.88
2023-04-24T08:22:35.678Z,1.80
2023-04-24T08:25:10.000Z,1.83
2023-04-24T08:27:42.872Z,1.80
2023-04-24T08:30:15.885Z,1.75
2023-04-24T08:32:48.755Z,1.88
2023-04-24T08:35:24.053Z,1.83
2023-04-24T08:37:56.948Z,2.00
2023-04-24T08:40:31.765Z,1.83
2023-04-24T08:43:05.654Z,1.88
2023-04-24T08:45:39.614Z,1.88
2023-04-24T08:48:23.322Z,2.10
2023-04-24T08:51:02.293Z,1.67
2023-04-24T08:53:35.254Z,1.90
2023-04-24T08:56:09.057Z,1.80
2023-04-24T08:58:43.448Z,1.80
2023-04-24T09:01:16.406Z,2.03
2023-04-24T09:03:51.564Z,1.55
2023-04-24T09:06:27.177Z,1.60
2023-04-24T09:09:02.333Z,1.73
2023-04-24T09:11:35.232Z,1.90
2023-04-24T09:14:09.209Z,1.80
2023-04-24T09:16:42.364Z,1.20
2023-04-24T09:19:15.250Z,1.45
2023-04-24T09:21:49.755Z,0.98
2023-04-24T09:24:24.327Z,0.90
2023-04-24T09:27:02.933Z,0.88
2023-04-24T09:29:36.401Z,0.70
2023-04-24T09:32:22.616Z,0.70
2023-04-24T09:35:10.134Z,0.82
2023-04-24T09:37:45.977Z,0.70
2023-04-24T09:40:20.489Z,0.80
2023-04-24T09:42:56.786Z,0.80
2023-04-24T09:45:30.709Z,1.00
2023-04-24T09:48:03.946Z,1.02
2023-04-24T09:50:40.091Z,1.00
2023-04-24T09:53:14.359Z,1.02
2023-04-24T09:55:49.570Z,0.85
2023-04-24T09:58:27.994Z,0.80
2023-04-24T10:01:00.982Z,1.15
2023-04-24T10:03:35.240Z,0.88
2023-04-24T10:06:10.123Z,1.30
2023-04-24T10:08:45.478Z,0.93
2023-04-24T10:11:18.970Z,1.10
2023-04-24T10:13:52.090Z,1.40
2023-04-24T10:16:28.217Z,1.30
2023-04-24T10:19:02.062Z,1.27
2023-04-24T10:21:36.070Z,0.88
2023-04-24T10:24:11.037Z,1.33
2023-04-24T10:26:45.189Z,1.25
2023-04-24T10:29:19.999Z,0.95
2023-04-24T10:31:53.123Z,1.33
2023-04-24T10:34:26.527Z,1.38
2023-04-24T10:36:59.594Z,1.30
2023-04-24T10:39:34.618Z,1.48
2023-04-24T10:42:16.916Z,1.50
2023-04-24T10:44:49.999Z,1.38
2023-04-24T10:47:22.860Z,1.10
2023-04-24T10:49:55.969Z,1.20
2023-04-24T10:52:46.317Z,1.20
2023-04-24T10:55:45.168Z,1.60
2023-04-24T10:58:19.190Z,1.52
2023-04-24T11:00:59.598Z,1.48
2023-04-24T11:03:34.281Z,2.10
2023-04-24T11:06:09.085Z,1.50
2023-04-24T11:08:45.906Z,1.50
2023-04-24T11:11:21.809Z,1.40
2023-04-24T11:14:07.632Z,1.90
2023-04-24T11:16:55.006Z,1.50
2023-04-24T11:19:29.795Z,1.52
2023-04-24T11:22:05.285Z,1.40
2023-04-24T11:24:42.784Z,1.38
2023-04-24T11:27:25.378Z,1.40
2023-04-24T11:30:02.913Z,1.50
2023-04-24T11:32:39.925Z,1.60
2023-04-24T11:35:17.632Z,1.67
2023-04-24T11:40:27.957Z,1.50
2023-04-24T11:43:02.512Z,1.58
2023-04-24T11:45:35.507Z,1.80
2023-04-24T11:48:08.849Z,1.80
2023-04-24T11:50:42.172Z,1.67
2023-04-24T11:53:15.009Z,1.30
2023-04-24T11:55:48.898Z,1.30
2023-04-24T11:58:24.353Z,1.10
2023-04-24T12:01:02.322Z,1.40
2023-04-24T12:03:35.443Z,1.60
2023-04-24T12:06:09.849Z,1.00
2023-04-24T12:08:42.821Z,1.00
2023-04-24T12:11:18.714Z,1.25
2023-04-24T12:13:52.823Z,1.00
2023-04-24T12:16:28.082Z,1.02
2023-04-24T12:19:02.001Z,1.50
2023-04-24T12:21:37.516Z,1.10
2023-04-24T12:24:10.377Z,1.05
2023-04-24T12:26:45.411Z,0.88
2023-04-24T12:29:23.508Z,1.20
2023-04-24T12:31:56.444Z,1.50
2023-04-24T12:34:29.424Z,1.38
2023-04-24T12:37:12.464Z,1.25
2023-04-24T12:40:01.524Z,0.95
2023-04-24T12:42:34.910Z,1.20
2023-04-24T12:45:09.987Z,1.10
2023-04-24T12:47:43.661Z,1.05
2023-04-24T12:50:17.943Z,1.40
2023-04-24T12:52:51.211Z,1.10
2023-04-24T12:55:24.240Z,1.20
2023-04-24T12:57:57.141Z,1.38
2023-04-24T13:00:31.619Z,1.40
2023-04-24T13:03:05.447Z,1.40
2023-04-24T13:05:38.278Z,1.58
2023-04-24T13:08:11.130Z,1.27
2023-04-24T13:10:44.027Z,1.60
2023-04-24T13:13:17.073Z,2.50
2023-04-24T13:15:51.188Z,1.10
2023-04-24T13:18:23.913Z,1.33
2023-04-24T13:20:57.514Z,1.35
2023-04-24T13:23:30.533Z,1.60
2023-04-24T13:26:03.587Z,1.23
2023-04-24T13:28:36.624Z,1.25
2023-04-24T13:31:11.781Z,1.08
2023-04-24T13:33:44.952Z,1.33
2023-04-24T13:36:18.428Z,1.73
2023-04-24T13:38:51.294Z,1.20
2023-04-24T13:41:24.079Z,1.65
2023-04-24T13:43:57.200Z,1.65
2023-04-24T13:46:31.530Z,1.58
2023-04-24T13:49:05.076Z,1.60
2023-04-24T13:51:38.256Z,1.60
2023-04-24T13:54:13.397Z,1.60
2023-04-24T13:56:46.192Z,1.58
2023-04-24T13:59:19.243Z,1.40
2023-04-24T14:01:53.468Z,1.73
2023-04-24T14:04:26.787Z,1.75
2023-04-24T14:06:59.963Z,1.65
2023-04-24T14:09:32.693Z,1.80
2023-04-24T14:12:06.673Z,2.70
2023-04-24T14:14:39.559Z,1.98
2023-04-24T14:17:13.770Z,1.55
2023-04-24T14:19:46.822Z,2.15
2023-04-24T14:22:19.887Z,2.08
2023-04-24T14:24:52.804Z,2.20
2023-04-24T14:27:26.368Z,1.95
2023-04-24T14:29:59.259Z,1.90
2023-04-24T14:32:33.571Z,1.77
2023-04-24T14:35:07.766Z,2.55
2023-04-24T14:37:42.164Z,2.40
2023-04-24T14:40:29.808Z,2.20
2023-04-24T14:43:08.043Z,2.42
2023-04-24T14:45:42.454Z,2.70
2023-04-24T14:48:17.619Z,2.47
2023-04-24T14:50:50.479Z,2.72
2023-04-24T14:53:23.305Z,2.97
2023-04-24T14:55:56.570Z,2.47
2023-04-24T14:58:29.482Z,2.15
2023-04-24T15:01:02.441Z,2.78
2023-04-24T15:03:37.063Z,2.60
2023-04-24T15:06:09.955Z,2.55
2023-04-24T15:08:43.064Z,2.08
2023-04-24T15:11:16.054Z,3.28
2023-04-24T15:13:49.065Z,2.20
2023-04-24T15:16:22.244Z,2.40
2023-04-24T15:18:58.090Z,2.35
2023-04-24T15:21:30.920Z,2.58
2023-04-24T15:24:03.743Z,2.20
2023-04-24T15:26:36.789Z,2.33
2023-04-24T15:29:10.750Z,1.90
2023-04-24T15:31:43.784Z,1.83
2023-04-24T15:34:18.021Z,2.20
2023-04-24T15:36:50.833Z,2.65
2023-04-24T15:39:24.997Z,2.55
2023-04-24T15:41:58.409Z,2.33
2023-04-24T15:44:31.229Z,2.85
2023-04-24T15:47:04.064Z,2.65
2023-04-24T15:49:38.245Z,2.30
2023-04-24T15:52:11.816Z,2.28
2023-04-24T15:54:44.561Z,2.53
2023-04-24T15:57:17.366Z,2.50
2023-04-24T15:59:50.410Z,2.47
2023-04-24T16:02:24.266Z,2.55
2023-04-24T16:04:58.790Z,2.33
2023-04-24T16:07:32.680Z,2.92
2023-04-24T16:10:06.361Z,2.50
2023-04-24T16:12:39.362Z,2.53
2023-04-24T16:15:12.714Z,2.25
2023-04-24T16:17:45.946Z,1.75
2023-04-24T16:20:20.824Z,2.22
2023-04-24T16:22:53.839Z,2.03
2023-04-24T16:25:26.622Z,2.13
2023-04-24T16:27:59.678Z,2.10
2023-04-24T16:30:32.534Z,2.88
2023-04-24T16:33:07.526Z,2.80
2023-04-24T16:35:43.198Z,2.65
2023-04-24T16:38:16.342Z,2.28
2023-04-24T16:40:55.024Z,2.50
2023-04-24T16:43:28.230Z,2.55
2023-04-24T16:46:01.648Z,2.33
2023-04-24T16:48:35.020Z,2.25
2023-04-24T16:51:09.310Z,1.75
2023-04-24T16:53:42.216Z,2.08
2023-04-24T17:14:06.265Z,2.20
2023-04-24T17:16:40.405Z,2.60
2023-04-24T17:19:13.736Z,2.28
2023-04-24T17:21:49.670Z,2.42
2023-04-24T17:24:22.550Z,2.30
2023-04-24T17:26:58.935Z,2.20
2023-04-24T17:29:36.056Z,2.25
2023-04-24T17:32:09.305Z,2.38
2023-04-24T17:34:42.214Z,2.17
2023-04-24T17:37:15.223Z,2.55
2023-04-24T17:39:48.008Z,2.40
2023-04-24T17:42:20.999Z,2.90
2023-04-24T17:44:55.966Z,2.50
2023-04-24T17:47:30.713Z,2.55
2023-04-24T17:50:03.670Z,2.80
2023-04-24T17:52:36.587Z,3.08
2023-04-24T17:55:09.746Z,2.20
2023-04-24T17:57:42.762Z,3.00
2023-04-24T18:00:17.833Z,2.60
2023-04-24T18:02:53.800Z,2.90
2023-04-24T18:05:26.828Z,3.10
2023-04-24T18:08:00.172Z,2.65
2023-04-24T18:10:35.352Z,3.10
2023-04-24T18:13:08.164Z,3.10
2023-04-24T18:15:43.682Z,2.97
2023-04-24T18:18:18.113Z,3.75
2023-04-24T18:20:50.971Z,3.45
2023-04-24T18:23:23.790Z,3.80
2023-04-24T18:25:56.457Z,3.30
2023-04-24T18:28:31.604Z,3.47
2023-04-24T18:31:07.465Z,3.33
2023-04-24T18:33:40.361Z,3.88
2023-04-24T18:36:13.117Z,3.15
2023-04-24T18:38:48.241Z,3.53
2023-04-24T18:41:21.175Z,3.40
2023-04-24T18:43:57.944Z,3.47
2023-04-24T18:46:37.825Z,4.10
2023-04-24T18:49:10.809Z,3.55
2023-04-24T18:51:53.258Z,3.95
2023-04-24T18:54:27.597Z,3.63
2023-04-24T18:57:01.709Z,3.35
2023-04-24T18:59:34.558Z,3.70
2023-04-24T19:02:09.231Z,3.05
2023-04-24T19:04:42.256Z,3.20
2023-04-24T19:07:15.000Z,3.40
2023-04-24T19:09:48.007Z,3.28
2023-04-24T19:12:22.808Z,3.28
2023-04-24T19:14:57.951Z,3.40
2023-04-24T19:17:32.578Z,3.33
2023-04-24T19:20:06.692Z,3.17
2023-04-24T19:22:39.518Z,3.63
2023-04-24T19:25:12.379Z,3.25
2023-04-24T19:27:45.137Z,3.58
2023-04-24T19:30:17.968Z,2.83
2023-04-24T19:32:52.188Z,3.08
2023-04-24T19:35:25.203Z,3.30
2023-04-24T19:37:58.155Z,3.35
2023-04-24T19:40:31.137Z,3.42
2023-04-24T19:43:03.983Z,3.78
2023-04-24T19:45:37.768Z,3.45
2023-04-24T19:48:12.217Z,4.10
2023-04-24T19:50:45.098Z,3.63
2023-04-24T19:53:18.094Z,3.53
2023-04-24T19:55:51.629Z,3.63
2023-04-24T19:58:24.526Z,4.47
2023-04-24T20:00:57.676Z,3.30
2023-04-24T20:03:33.896Z,3.75
2023-04-24T20:06:07.443Z,3.67
2023-04-24T20:08:40.438Z,3.85
2023-04-24T20:11:13.318Z,3.67
2023-04-24T20:13:46.188Z,3.30
2023-04-24T20:16:19.463Z,3.58
2023-04-24T20:18:53.694Z,3.90
2023-04-24T20:21:26.620Z,3.15
2023-04-24T20:23:59.515Z,3.55
2023-04-24T20:26:32.305Z,3.10
2023-04-24T20:29:06.788Z,3.35
2023-04-24T20:31:39.779Z,2.78
2023-04-24T20:34:14.203Z,3.28
2023-04-24T20:36:49.720Z,3.22
2023-04-24T20:39:23.125Z,2.97
2023-04-24T20:41:56.045Z,2.90
2023-04-24T20:44:29.368Z,3.20
2023-04-24T20:47:02.423Z,3.10
2023-04-24T20:49:36.665Z,3.42
2023-04-24T20:52:09.493Z,2.85
2023-04-24T20:54:42.830Z,3.08
2023-04-24T20:57:15.946Z,2.58
2023-04-24T20:59:48.973Z,2.30
2023-04-24T21:02:22.091Z,2.65
2023-04-24T21:04:56.361Z,2.90
2023-04-24T21:07:29.668Z,2.97
2023-04-24T21:10:02.832Z,3.17
2023-04-24T21:12:35.604Z,3.20
2023-04-24T21:15:09.401Z,2.95
2023-04-24T21:17:42.612Z,3.22
2023-04-24T21:20:17.091Z,2.92
2023-04-24T21:22:49.873Z,2.85
2023-04-24T21:25:22.686Z,2.90
2023-04-24T21:27:55.837Z,3.47
2023-04-24T21:30:30.309Z,3.60
2023-04-24T21:33:03.506Z,3.08
2023-04-24T21:35:38.295Z,3.30
2023-04-24T21:38:11.259Z,3.55
2023-04-24T21:40:44.147Z,3.05
2023-04-24T21:43:17.098Z,3.20
2023-04-24T21:45:50.296Z,3.58
2023-04-24T21:48:23.288Z,2.95
2023-04-24T21:50:57.437Z,3.22
2023-04-24T21:53:30.582Z,3.55
2023-04-24T21:56:03.603Z,3.55
2023-04-24T21:58:37.060Z,3.55
2023-04-24T22:01:10.270Z,3.13
2023-04-24T22:08:12.183Z,2.83
2023-04-24T22:10:45.040Z,3.42
2023-04-24T22:13:17.929Z,3.30
2023-04-24T22:15:51.766Z,3.50
2023-04-24T22:18:30.607Z,3.17
2023-04-24T22:21:09.665Z,3.00
2023-04-24T22:23:44.380Z,3.50
2023-04-24T22:26:17.322Z,3.28
2023-04-24T22:28:50.146Z,3.33
2023-04-24T22:31:23.471Z,3.25
2023-04-24T22:33:56.866Z,3.38
2023-04-24T22:36:29.686Z,3.05
2023-04-24T22:39:05.042Z,2.83
2023-04-24T22:41:37.850Z,3.35
2023-04-24T22:44:11.349Z,3.53
2023-04-24T22:46:45.279Z,3.33
2023-04-24T22:49:18.092Z,3.10
2023-04-24T22:51:51.787Z,3.33
2023-04-24T22:54:26.078Z,3.10
2023-04-24T22:56:58.992Z,3.47
2023-04-24T22:59:31.803Z,3.50
2023-04-24T23:02:04.631Z,3.20
2023-04-24T23:04:37.749Z,3.33
2023-04-24T23:07:10.544Z,3.60
2023-04-24T23:09:44.664Z,3.22
2023-04-24T23:12:17.469Z,4.03
2023-04-24T23:14:50.596Z,3.40
2023-04-24T23:17:23.822Z,3.40
2023-04-24T23:19:57.146Z,3.17
2023-04-24T23:22:33.977Z,3.20
2023-04-24T23:25:09.891Z,3.10
2023-04-24T23:27:42.772Z,3.45
2023-04-24T23:30:15.627Z,3.25
2023-04-24T23:32:48.484Z,3.55
2023-04-24T23:35:21.389Z,3.60
2023-04-24T23:37:54.213Z,3.70
2023-04-24T23:40:28.484Z,3.60
2023-04-24T23:43:07.479Z,3.58
2023-04-24T23:45:41.651Z,3.30
2023-04-24T23:48:14.511Z,3.15
2023-04-24T23:50:47.276Z,3.33
2023-04-24T23:53:20.287Z,3.65
2023-04-24T23:55:54.604Z,3.38
2023-04-24T23:58:27.408Z,3.20
